Svitzer Leixoes — CSXW6 — position and weather

sailwx.info

Track history (hours):
 
Tides and Currents Weather Stations Pressure Air Temp Water Temp Dewpoint Dewpoint Depression Visibility Wind Speed Wind Dir Waves Ship Positions

Svitzer Leixoes

Last reported at 2014-Oct-21 08:19 UTC. Time now 2014-Oct-21 08:57 UTC.
Position N 38°42' W 009°10'.

Length 28 m; draft 3.9 m.

Type: Towing. MMSI: 263622000.

Date/timePositionNaut miles runAvg speedWind from/ knotsBaromVisibWave heightAir tempDewpointWater temp
2014-Oct-21 08:19N 38°42' W 009°10'0 0.0
2014-Oct-21 07:33N 38°42' W 009°10'0 0.3
2014-Oct-21 06:33N 38°42' W 009°10'0 0.2
2014-Oct-21 05:33N 38°42' W 009°10'0 0.1
2014-Oct-21 04:33N 38°42' W 009°10'0 0.1
2014-Oct-20 23:23N 38°42' W 009°10'2 2.2
2014-Oct-20 22:32N 38°43' W 009°07'0 0.0
2014-Oct-20 21:33N 38°43' W 009°07'2 1.8
2014-Oct-20 20:28N 38°42' W 009°10'0 0.0
2014-Oct-20 19:26N 38°42' W 009°10'0 0.0
2014-Oct-20 18:07N 38°42' W 009°10'0 0.0
2014-Oct-20 12:11N 38°42' W 009°10'0 0.5
2014-Oct-20 11:33N 38°42' W 009°10'0 0.0
2014-Oct-20 01:05N 38°42' W 009°10'2 1.2
2014-Oct-19 23:32N 38°43' W 009°07'1 0.9
2014-Oct-19 22:33N 38°42' W 009°08'1 0.0
2014-Oct-19 00:27N 38°42' W 009°09'1 1.6
2014-Oct-18 23:33N 38°42' W 009°08'1 1.2
2014-Oct-18 22:28N 38°43' W 009°06'3 0.4
2014-Oct-18 15:15N 38°42' W 009°10'1 0.1
2014-Oct-18 07:29N 38°42' W 009°09'0 0.0
2014-Oct-17 18:31N 38°42' W 009°09'1 1.4
2014-Oct-17 17:33N 38°41' W 009°08'2 0.8
2014-Oct-17 15:17N 38°42' W 009°09'1 1.8
2014-Oct-17 14:33N 38°42' W 009°08'0 0.1
2014-Oct-17 13:33N 38°42' W 009°08'2 1.8
2014-Oct-17 12:16N 38°42' W 009°10'0 0.1
2014-Oct-17 06:21N 38°42' W 009°10'0 0.3
2014-Oct-17 05:05N 38°42' W 009°10'2 0.1
2014-Oct-16 11:14N 38°40' W 009°09'2 2.4
2014-Oct-16 10:22N 38°42' W 009°10'2 2.3
2014-Oct-16 09:22N 38°43' W 009°07'2 0.4
2014-Oct-16 03:25N 38°42' W 009°10'0 0.0
2014-Oct-16 02:34N 38°42' W 009°10'0 0.0
2014-Oct-16 01:33N 38°42' W 009°10'0 0.0
2014-Oct-16 00:34N 38°42' W 009°10'0 0.0
2014-Oct-15 23:33N 38°42' W 009°10'0 0.0
2014-Oct-15 22:33N 38°42' W 009°10'0 0.0
2014-Oct-15 21:34N 38°42' W 009°10'1 1.3
2014-Oct-15 20:33N 38°42' W 009°08'2 1.7
2014-Oct-15 19:33N 38°44' W 009°06'0 0.0
2014-Oct-15 18:34N 38°44' W 009°06'2 2.2
2014-Oct-15 17:33N 38°42' W 009°08'2 1.5
2014-Oct-15 16:33N 38°42' W 009°09'0 0.1
2014-Oct-15 15:33N 38°42' W 009°10'0 0.0
2014-Oct-15 14:34N 38°42' W 009°10'0 0.0
2014-Oct-15 13:33N 38°42' W 009°10'0 0.0
2014-Oct-15 12:34N 38°42' W 009°10'0 0.0
2014-Oct-15 11:33N 38°42' W 009°10'0 0.0
2014-Oct-15 10:34N 38°42' W 009°10'0 0.0
2014-Oct-15 09:34N 38°42' W 009°10'0 0.0
2014-Oct-15 08:33N 38°42' W 009°10'2 2.1
2014-Oct-15 07:34N 38°40' W 009°09'2 2.1
2014-Oct-15 06:33N 38°42' W 009°10'0 0.0
2014-Oct-15 05:33N 38°42' W 009°10'0 0.0
2014-Oct-15 04:33N 38°42' W 009°10'0 0.0
2014-Oct-15 03:33N 38°42' W 009°10'0 0.0
2014-Oct-15 02:33N 38°42' W 009°10'0 0.0
2014-Oct-15 01:34N 38°42' W 009°10'0 0.0
2014-Oct-15 00:34N 38°42' W 009°10'0 0.0
2014-Oct-14 23:33N 38°42' W 009°10'0 0.0
2014-Oct-14 22:34N 38°42' W 009°10'0 0.0
2014-Oct-14 21:34N 38°42' W 009°10'3 2.8
2014-Oct-14 20:33N 38°41' W 009°13'3 2.8
2014-Oct-14 19:34N 38°42' W 009°10'0 0.0
2014-Oct-14 18:33N 38°42' W 009°10'0 0.0
2014-Oct-14 17:34N 38°42' W 009°10'0 0.2
2014-Oct-14 16:33N 38°42' W 009°10'0 0.2
2014-Oct-14 15:33N 38°42' W 009°10'0 0.0
2014-Oct-14 14:33N 38°42' W 009°10'3 2.8
2014-Oct-14 13:29N 38°44' W 009°06'3 2.8
2014-Oct-14 12:34N 38°42' W 009°09'0 0.3
2014-Oct-14 11:34N 38°42' W 009°09'0 0.1
2014-Oct-14 10:33N 38°42' W 009°10'0 0.0
2014-Oct-14 09:33N 38°42' W 009°10'0 0.0
2014-Oct-14 08:34N 38°42' W 009°10'0 0.0
2014-Oct-14 07:33N 38°42' W 009°10'1 0.6
2014-Oct-14 06:33N 38°42' W 009°10'1 0.6
2014-Oct-14 05:34N 38°42' W 009°10'0 0.0
2014-Oct-14 04:33N 38°42' W 009°10'0 0.0
2014-Oct-14 03:34N 38°42' W 009°10'0 0.0
2014-Oct-14 02:34N 38°42' W 009°10'0 0.0
2014-Oct-14 01:33N 38°42' W 009°10'0 0.0
2014-Oct-14 00:34N 38°42' W 009°10'0 0.1
2014-Oct-13 23:33N 38°42' W 009°09'0 0.1
2014-Oct-13 22:33N 38°42' W 009°10'0 0.0
2014-Oct-13 21:34N 38°42' W 009°10'0 0.0
2014-Oct-13 20:34N 38°42' W 009°10'0 0.0
2014-Oct-13 19:33N 38°42' W 009°10'0 0.0
2014-Oct-13 18:33N 38°42' W 009°10'0 0.3
2014-Oct-13 17:33N 38°42' W 009°10'0 0.3
2014-Oct-13 16:34N 38°42' W 009°10'0 0.1
2014-Oct-13 15:33N 38°42' W 009°10'0 0.0
2014-Oct-13 14:33N 38°42' W 009°10'0 0.0
2014-Oct-13 13:34N 38°42' W 009°10'1 0.8
2014-Oct-13 12:33N 38°42' W 009°10'1 0.8
2014-Oct-13 11:33N 38°42' W 009°10'0 0.0
2014-Oct-13 10:33N 38°42' W 009°10'0 0.0
2014-Oct-13 09:33N 38°42' W 009°10'0 0.0
2014-Oct-13 08:33N 38°42' W 009°10'0 0.0
2014-Oct-13 07:33N 38°42' W 009°10'0 0.0
2014-Oct-13 06:33N 38°42' W 009°10'0 0.0
2014-Oct-13 05:33N 38°42' W 009°10'0 0.0
2014-Oct-13 04:34N 38°42' W 009°10'0 0.0
2014-Oct-13 03:33N 38°42' W 009°10'0 0.0
2014-Oct-13 02:33N 38°42' W 009°10'0 0.0
2014-Oct-13 01:34N 38°42' W 009°10'0 0.0
2014-Oct-13 00:33N 38°42' W 009°10'0 0.0
2014-Oct-12 23:33N 38°42' W 009°10'0 0.0
2014-Oct-12 22:33N 38°42' W 009°10'0 0.0
2014-Oct-12 21:33N 38°42' W 009°10'0 0.0
2014-Oct-12 20:33N 38°42' W 009°10'0 0.0
2014-Oct-12 19:33N 38°42' W 009°10'0 0.0
2014-Oct-12 18:33N 38°42' W 009°10'0 0.0
2014-Oct-12 17:33N 38°42' W 009°10'0 0.0
2014-Oct-12 16:34N 38°42' W 009°10'0 0.0
2014-Oct-12 15:34N 38°42' W 009°10'0 0.0
2014-Oct-12 14:33N 38°42' W 009°10'0 0.0
2014-Oct-12 13:33N 38°42' W 009°10'0 0.0
2014-Oct-12 12:33N 38°42' W 009°10'0 0.0
2014-Oct-12 11:33N 38°42' W 009°10'0 0.5
2014-Oct-12 10:33N 38°42' W 009°09'2 1.8
2014-Oct-12 09:34N 38°40' W 009°09'3 2.7
2014-Oct-12 08:33N 38°43' W 009°07'1 0.7
2014-Oct-12 07:33N 38°42' W 009°08'1 1.2
2014-Oct-12 06:34N 38°42' W 009°10'1 0.8
2014-Oct-12 05:33N 38°42' W 009°09'1 0.8
2014-Oct-12 04:33N 38°42' W 009°10'0 0.0
2014-Oct-12 03:33N 38°42' W 009°10'0 0.0
2014-Oct-12 02:33N 38°42' W 009°10'0 0.0
2014-Oct-12 01:34N 38°42' W 009°10'0 0.0
2014-Oct-12 00:34N 38°42' W 009°10'1 1.2
2014-Oct-11 23:34N 38°42' W 009°11'1 0.8
2014-Oct-11 22:33N 38°41' W 009°11'1 1.1
2014-Oct-11 21:33N 38°41' W 009°12'2 2.4
2014-Oct-11 20:33N 38°42' W 009°10'0 0.0
2014-Oct-11 19:33N 38°42' W 009°10'0 0.0
2014-Oct-11 18:33N 38°42' W 009°10'0 0.0
2014-Oct-11 17:33N 38°42' W 009°10'0 0.0
2014-Oct-11 16:33N 38°42' W 009°10'0 0.1
2014-Oct-11 15:33N 38°42' W 009°10'5 4.8
2014-Oct-11 14:33N 38°41' W 009°04'2 2.0
2014-Oct-11 13:33N 38°41' W 009°06'3 3.1
2014-Oct-11 12:33N 38°42' W 009°10'0 0.0
2014-Oct-11 11:33N 38°42' W 009°10'0 0.0
2014-Oct-11 10:33N 38°42' W 009°10'0 0.0
2014-Oct-11 09:33N 38°42' W 009°10'0 0.0
2014-Oct-11 08:33N 38°42' W 009°10'  
Track history (hours):
 
Tides and Currents Weather Stations Pressure Air Temp Water Temp Dewpoint Dewpoint Depression Visibility Wind Speed Wind Dir Waves Ship Positions

Svitzer Leixoes

Last reported at 2014-Oct-21 08:19 UTC. Time now 2014-Oct-21 08:57 UTC.
Position N 38°42' W 009°10'.

Length 28 m; draft 3.9 m.

Type: Towing. MMSI: 263622000.

Date/timePositionNaut miles runAvg speedWind from/ knotsBaromVisibWave heightAir tempDewpointWater temp
2014-Oct-21 08:19N 38°42' W 009°10'0 0.0
2014-Oct-21 07:33N 38°42' W 009°10'0 0.3
2014-Oct-21 06:33N 38°42' W 009°10'0 0.2
2014-Oct-21 05:33N 38°42' W 009°10'0 0.1
2014-Oct-21 04:33N 38°42' W 009°10'0 0.1
2014-Oct-20 23:23N 38°42' W 009°10'2 2.2
2014-Oct-20 22:32N 38°43' W 009°07'0 0.0
2014-Oct-20 21:33N 38°43' W 009°07'2 1.8
2014-Oct-20 20:28N 38°42' W 009°10'0 0.0
2014-Oct-20 19:26N 38°42' W 009°10'0 0.0
2014-Oct-20 18:07N 38°42' W 009°10'0 0.0
2014-Oct-20 12:11N 38°42' W 009°10'0 0.5
2014-Oct-20 11:33N 38°42' W 009°10'0 0.0
2014-Oct-20 01:05N 38°42' W 009°10'2 1.2
2014-Oct-19 23:32N 38°43' W 009°07'1 0.9
2014-Oct-19 22:33N 38°42' W 009°08'1 0.0
2014-Oct-19 00:27N 38°42' W 009°09'1 1.6
2014-Oct-18 23:33N 38°42' W 009°08'1 1.2
2014-Oct-18 22:28N 38°43' W 009°06'3 0.4
2014-Oct-18 15:15N 38°42' W 009°10'1 0.1
2014-Oct-18 07:29N 38°42' W 009°09'0 0.0
2014-Oct-17 18:31N 38°42' W 009°09'1 1.4
2014-Oct-17 17:33N 38°41' W 009°08'2 0.8
2014-Oct-17 15:17N 38°42' W 009°09'1 1.8
2014-Oct-17 14:33N 38°42' W 009°08'0 0.1
2014-Oct-17 13:33N 38°42' W 009°08'2 1.8
2014-Oct-17 12:16N 38°42' W 009°10'0 0.1
2014-Oct-17 06:21N 38°42' W 009°10'0 0.3
2014-Oct-17 05:05N 38°42' W 009°10'2 0.1
2014-Oct-16 11:14N 38°40' W 009°09'2 2.4
2014-Oct-16 10:22N 38°42' W 009°10'2 2.3
2014-Oct-16 09:22N 38°43' W 009°07'2 0.4
2014-Oct-16 03:25N 38°42' W 009°10'0 0.0
2014-Oct-16 02:34N 38°42' W 009°10'0 0.0
2014-Oct-16 01:33N 38°42' W 009°10'0 0.0
2014-Oct-16 00:34N 38°42' W 009°10'0 0.0
2014-Oct-15 23:33N 38°42' W 009°10'0 0.0
2014-Oct-15 22:33N 38°42' W 009°10'0 0.0
2014-Oct-15 21:34N 38°42' W 009°10'1 1.3
2014-Oct-15 20:33N 38°42' W 009°08'2 1.7
2014-Oct-15 19:33N 38°44' W 009°06'0 0.0
2014-Oct-15 18:34N 38°44' W 009°06'2 2.2
2014-Oct-15 17:33N 38°42' W 009°08'2 1.5
2014-Oct-15 16:33N 38°42' W 009°09'0 0.1
2014-Oct-15 15:33N 38°42' W 009°10'0 0.0
2014-Oct-15 14:34N 38°42' W 009°10'0 0.0
2014-Oct-15 13:33N 38°42' W 009°10'0 0.0
2014-Oct-15 12:34N 38°42' W 009°10'0 0.0
2014-Oct-15 11:33N 38°42' W 009°10'0 0.0
2014-Oct-15 10:34N 38°42' W 009°10'0 0.0
2014-Oct-15 09:34N 38°42' W 009°10'0 0.0
2014-Oct-15 08:33N 38°42' W 009°10'2 2.1
2014-Oct-15 07:34N 38°40' W 009°09'2 2.1
2014-Oct-15 06:33N 38°42' W 009°10'0 0.0
2014-Oct-15 05:33N 38°42' W 009°10'0 0.0
2014-Oct-15 04:33N 38°42' W 009°10'0 0.0
2014-Oct-15 03:33N 38°42' W 009°10'0 0.0
2014-Oct-15 02:33N 38°42' W 009°10'0 0.0
2014-Oct-15 01:34N 38°42' W 009°10'0 0.0
2014-Oct-15 00:34N 38°42' W 009°10'0 0.0
2014-Oct-14 23:33N 38°42' W 009°10'0 0.0
2014-Oct-14 22:34N 38°42' W 009°10'0 0.0
2014-Oct-14 21:34N 38°42' W 009°10'3 2.8
2014-Oct-14 20:33N 38°41' W 009°13'3 2.8
2014-Oct-14 19:34N 38°42' W 009°10'0 0.0
2014-Oct-14 18:33N 38°42' W 009°10'0 0.0
2014-Oct-14 17:34N 38°42' W 009°10'0 0.2
2014-Oct-14 16:33N 38°42' W 009°10'0 0.2
2014-Oct-14 15:33N 38°42' W 009°10'0 0.0
2014-Oct-14 14:33N 38°42' W 009°10'3 2.8
2014-Oct-14 13:29N 38°44' W 009°06'3 2.8
2014-Oct-14 12:34N 38°42' W 009°09'0 0.3
2014-Oct-14 11:34N 38°42' W 009°09'0 0.1
2014-Oct-14 10:33N 38°42' W 009°10'0 0.0
2014-Oct-14 09:33N 38°42' W 009°10'0 0.0
2014-Oct-14 08:34N 38°42' W 009°10'0 0.0
2014-Oct-14 07:33N 38°42' W 009°10'1 0.6
2014-Oct-14 06:33N 38°42' W 009°10'1 0.6
2014-Oct-14 05:34N 38°42' W 009°10'0 0.0
2014-Oct-14 04:33N 38°42' W 009°10'0 0.0
2014-Oct-14 03:34N 38°42' W 009°10'0 0.0
2014-Oct-14 02:34N 38°42' W 009°10'0 0.0
2014-Oct-14 01:33N 38°42' W 009°10'0 0.0
2014-Oct-14 00:34N 38°42' W 009°10'0 0.1
2014-Oct-13 23:33N 38°42' W 009°09'0 0.1
2014-Oct-13 22:33N 38°42' W 009°10'0 0.0
2014-Oct-13 21:34N 38°42' W 009°10'0 0.0
2014-Oct-13 20:34N 38°42' W 009°10'0 0.0
2014-Oct-13 19:33N 38°42' W 009°10'0 0.0
2014-Oct-13 18:33N 38°42' W 009°10'0 0.3
2014-Oct-13 17:33N 38°42' W 009°10'0 0.3
2014-Oct-13 16:34N 38°42' W 009°10'0 0.1
2014-Oct-13 15:33N 38°42' W 009°10'0 0.0
2014-Oct-13 14:33N 38°42' W 009°10'0 0.0
2014-Oct-13 13:34N 38°42' W 009°10'1 0.8
2014-Oct-13 12:33N 38°42' W 009°10'1 0.8
2014-Oct-13 11:33N 38°42' W 009°10'0 0.0
2014-Oct-13 10:33N 38°42' W 009°10'0 0.0
2014-Oct-13 09:33N 38°42' W 009°10'0 0.0
2014-Oct-13 08:33N 38°42' W 009°10'0 0.0
2014-Oct-13 07:33N 38°42' W 009°10'0 0.0
2014-Oct-13 06:33N 38°42' W 009°10'0 0.0
2014-Oct-13 05:33N 38°42' W 009°10'0 0.0
2014-Oct-13 04:34N 38°42' W 009°10'0 0.0
2014-Oct-13 03:33N 38°42' W 009°10'0 0.0
2014-Oct-13 02:33N 38°42' W 009°10'0 0.0
2014-Oct-13 01:34N 38°42' W 009°10'0 0.0
2014-Oct-13 00:33N 38°42' W 009°10'0 0.0
2014-Oct-12 23:33N 38°42' W 009°10'0 0.0
2014-Oct-12 22:33N 38°42' W 009°10'0 0.0
2014-Oct-12 21:33N 38°42' W 009°10'0 0.0
2014-Oct-12 20:33N 38°42' W 009°10'0 0.0
2014-Oct-12 19:33N 38°42' W 009°10'0 0.0
2014-Oct-12 18:33N 38°42' W 009°10'0 0.0
2014-Oct-12 17:33N 38°42' W 009°10'0 0.0
2014-Oct-12 16:34N 38°42' W 009°10'0 0.0
2014-Oct-12 15:34N 38°42' W 009°10'0 0.0
2014-Oct-12 14:33N 38°42' W 009°10'0 0.0
2014-Oct-12 13:33N 38°42' W 009°10'0 0.0
2014-Oct-12 12:33N 38°42' W 009°10'0 0.0
2014-Oct-12 11:33N 38°42' W 009°10'0 0.5
2014-Oct-12 10:33N 38°42' W 009°09'2 1.8
2014-Oct-12 09:34N 38°40' W 009°09'3 2.7
2014-Oct-12 08:33N 38°43' W 009°07'1 0.7
2014-Oct-12 07:33N 38°42' W 009°08'1 1.2
2014-Oct-12 06:34N 38°42' W 009°10'1 0.8
2014-Oct-12 05:33N 38°42' W 009°09'1 0.8
2014-Oct-12 04:33N 38°42' W 009°10'0 0.0
2014-Oct-12 03:33N 38°42' W 009°10'0 0.0
2014-Oct-12 02:33N 38°42' W 009°10'0 0.0
2014-Oct-12 01:34N 38°42' W 009°10'0 0.0
2014-Oct-12 00:34N 38°42' W 009°10'1 1.2
2014-Oct-11 23:34N 38°42' W 009°11'1 0.8
2014-Oct-11 22:33N 38°41' W 009°11'1 1.1
2014-Oct-11 21:33N 38°41' W 009°12'2 2.4
2014-Oct-11 20:33N 38°42' W 009°10'0 0.0
2014-Oct-11 19:33N 38°42' W 009°10'0 0.0
2014-Oct-11 18:33N 38°42' W 009°10'0 0.0
2014-Oct-11 17:33N 38°42' W 009°10'0 0.0
2014-Oct-11 16:33N 38°42' W 009°10'0 0.1
2014-Oct-11 15:33N 38°42' W 009°10'5 4.8
2014-Oct-11 14:33N 38°41' W 009°04'2 2.0
2014-Oct-11 13:33N 38°41' W 009°06'3 3.1
2014-Oct-11 12:33N 38°42' W 009°10'0 0.0
2014-Oct-11 11:33N 38°42' W 009°10'0 0.0
2014-Oct-11 10:33N 38°42' W 009°10'0 0.0
2014-Oct-11 09:33N 38°42' W 009°10'0 0.0
2014-Oct-11 08:33N 38°42' W 009°10'  

Dump ship's entire track history